createdAt,value
2023-07-01T00:00:32.404Z,98850.48
2023-07-01T00:03:00.930Z,98845.91
2023-07-01T00:05:29.770Z,98836.79
2023-07-01T00:07:57.735Z,98829.36
2023-07-01T00:10:27.072Z,98824.17
2023-07-01T00:12:54.797Z,98825.81
2023-07-01T00:15:22.731Z,98823.68
2023-07-01T00:17:50.674Z,98824.56
2023-07-01T00:20:18.450Z,98824.11
2023-07-01T00:22:46.426Z,98822.14
2023-07-01T00:25:14.423Z,98823.70
2023-07-01T00:27:42.363Z,98814.17
2023-07-01T00:30:10.685Z,98812.64
2023-07-01T00:32:38.702Z,98808.23
2023-07-01T00:35:07.103Z,98807.12
2023-07-01T00:37:34.988Z,98808.59
2023-07-01T00:40:02.869Z,98811.88
2023-07-01T00:42:31.391Z,98821.45
2023-07-01T00:44:59.288Z,98827.92
2023-07-01T00:47:27.967Z,98833.79
2023-07-01T00:49:55.873Z,98841.20
2023-07-01T00:52:23.753Z,98844.61
2023-07-01T00:54:52.410Z,98849.55
2023-07-01T00:57:20.295Z,98857.33
2023-07-01T00:59:48.191Z,98864.80
2023-07-01T01:02:23.139Z,98871.67
2023-07-01T01:05:02.876Z,98877.52
2023-07-01T01:07:32.959Z,98881.59
2023-07-01T01:10:08.773Z,98881.70
2023-07-01T01:12:37.261Z,98884.80
2023-07-01T01:15:06.778Z,98886.20
2023-07-01T01:17:36.293Z,98886.73
2023-07-01T01:20:14.048Z,98884.84
2023-07-01T01:22:54.846Z,98883.05
2023-07-01T01:25:29.141Z,98890.87
2023-07-01T01:27:57.215Z,98896.92
2023-07-01T01:30:25.116Z,98898.41
2023-07-01T01:32:53.025Z,98895.46
2023-07-01T01:35:21.129Z,98890.67
2023-07-01T01:38:00.374Z,98888.88
2023-07-01T01:40:36.128Z,98885.35
2023-07-01T01:43:52.316Z,98879.33
2023-07-01T01:46:20.824Z,98826.98
2023-07-01T01:48:48.716Z,98812.96
2023-07-01T01:51:16.797Z,98792.46
2023-07-01T01:53:44.926Z,98768.97
2023-07-01T01:56:12.987Z,98739.96
2023-07-01T01:58:41.278Z,98710.52
2023-07-01T02:01:09.329Z,98686.38
2023-07-01T02:03:37.327Z,98657.52
2023-07-01T02:06:05.498Z,98633.95
2023-07-01T02:08:33.445Z,98613.56
2023-07-01T02:11:01.418Z,98585.68
2023-07-01T02:13:29.184Z,98559.55
2023-07-01T02:15:57.029Z,98534.70
2023-07-01T02:18:24.904Z,98509.70
2023-07-01T02:20:52.881Z,98488.36
2023-07-01T02:23:20.865Z,98461.58
2023-07-01T02:25:48.612Z,98432.11
2023-07-01T02:28:16.378Z,98408.43
2023-07-01T02:30:45.522Z,98376.98
2023-07-01T02:33:13.890Z,98344.84
2023-07-01T02:35:41.721Z,98307.92
2023-07-01T02:38:09.617Z,98276.14
2023-07-01T02:40:37.785Z,98247.51
2023-07-01T02:43:06.036Z,98226.95
2023-07-01T02:45:34.732Z,98217.77
2023-07-01T02:48:02.798Z,98216.55
2023-07-01T02:50:31.257Z,98222.81
2023-07-01T02:52:59.237Z,98240.23
2023-07-01T02:55:30.574Z,98262.14
2023-07-01T02:57:58.940Z,98288.89
2023-07-01T03:00:26.917Z,98311.78
2023-07-01T03:02:54.885Z,98343.79
2023-07-01T03:05:24.683Z,98374.72
2023-07-01T03:07:53.321Z,98411.12
2023-07-01T03:10:21.568Z,98443.71
2023-07-01T03:12:49.630Z,98475.76
2023-07-01T03:15:17.472Z,98507.02
2023-07-01T03:17:45.282Z,98538.69
2023-07-01T03:20:24.332Z,98570.20
2023-07-01T03:22:57.925Z,98608.25
2023-07-01T03:25:26.991Z,98643.20
2023-07-01T03:27:54.775Z,98687.17
2023-07-01T03:30:32.042Z,98729.55
2023-07-01T03:33:00.153Z,98779.65
2023-07-01T03:35:28.348Z,98823.48
2023-07-01T03:37:56.251Z,98873.73
2023-07-01T03:40:24.229Z,98924.14
2023-07-01T03:42:52.016Z,98994.67
2023-07-01T03:45:20.223Z,99075.94
2023-07-01T03:47:48.348Z,99156.94
2023-07-01T03:50:16.548Z,99232.45
2023-07-01T03:52:44.385Z,99318.52
2023-07-01T03:55:12.805Z,99380.38
2023-07-01T03:57:40.789Z,99431.75
2023-07-01T04:00:18.867Z,99461.97
2023-07-01T04:02:51.526Z,99494.25
2023-07-01T04:05:19.667Z,99525.36
2023-07-01T04:07:49.585Z,99554.39
2023-07-01T04:10:17.920Z,99575.48
2023-07-01T04:12:46.066Z,99589.17
2023-07-01T04:15:14.102Z,99599.54
2023-07-01T04:17:44.083Z,99606.73
2023-07-01T04:20:12.544Z,99629.65
2023-07-01T04:22:40.766Z,99646.27
2023-07-01T04:25:09.380Z,99656.85
2023-07-01T04:27:37.419Z,99662.69
2023-07-01T04:30:09.659Z,99666.48
2023-07-01T04:32:37.966Z,99658.77
2023-07-01T04:35:06.500Z,99654.08
2023-07-01T04:37:34.922Z,99643.97
2023-07-01T04:40:03.909Z,99620.16
2023-07-01T04:42:34.070Z,99605.14
2023-07-01T04:45:02.829Z,99586.64
2023-07-01T04:47:31.143Z,99579.08
2023-07-01T04:49:59.202Z,99566.27
2023-07-01T04:52:27.139Z,99550.73
2023-07-01T04:54:54.886Z,99526.05
2023-07-01T04:57:22.948Z,99503.41
2023-07-01T04:59:50.787Z,99482.55
2023-07-01T05:02:19.408Z,99461.48
2023-07-01T05:04:47.515Z,99441.63
2023-07-01T05:07:15.563Z,99424.92
2023-07-01T05:09:43.324Z,99401.66
2023-07-01T05:12:11.431Z,99371.06
2023-07-01T05:14:39.413Z,99345.69
2023-07-01T05:17:07.513Z,99337.02
2023-07-01T05:19:36.175Z,99328.36
2023-07-01T05:22:04.524Z,99292.63
2023-07-01T05:24:32.819Z,99263.46
2023-07-01T05:27:01.039Z,99257.27
2023-07-01T05:29:29.858Z,99246.53
2023-07-01T05:31:58.128Z,99248.61
2023-07-01T05:34:26.191Z,99206.34
2023-07-01T05:36:54.197Z,99159.77
2023-07-01T05:39:21.920Z,99140.05
2023-07-01T05:41:49.968Z,99109.48
2023-07-01T05:44:17.749Z,99075.38
2023-07-01T05:46:45.729Z,99027.36
2023-07-01T05:49:13.612Z,98995.06
2023-07-01T05:51:41.721Z,98963.55
2023-07-01T05:54:09.766Z,98933.11
2023-07-01T05:56:37.573Z,98923.17
2023-07-01T05:59:05.347Z,98920.23
2023-07-01T06:01:33.286Z,98917.98
2023-07-01T06:04:01.391Z,98892.08
2023-07-01T06:06:29.577Z,98856.53
2023-07-01T06:08:57.802Z,98858.02
2023-07-01T06:11:25.649Z,98842.33
2023-07-01T06:13:53.593Z,98834.41
2023-07-01T06:16:21.701Z,98823.20
2023-07-01T06:18:49.658Z,98796.98
2023-07-01T06:21:17.372Z,98791.42
2023-07-01T06:23:45.104Z,98776.73
2023-07-01T06:26:15.632Z,98753.97
2023-07-01T06:28:45.278Z,98749.55
2023-07-01T06:31:13.066Z,98749.90
2023-07-01T06:33:41.004Z,98735.27
2023-07-01T06:36:08.876Z,98731.05
2023-07-01T06:38:36.840Z,98745.17
2023-07-01T06:41:04.552Z,98749.89
2023-07-01T06:43:32.587Z,98750.55
2023-07-01T06:46:01.111Z,98757.95
2023-07-01T06:48:29.066Z,98756.23
2023-07-01T06:50:57.104Z,98752.77
2023-07-01T06:53:24.846Z,98743.48
2023-07-01T06:55:52.779Z,98736.73
2023-07-01T06:58:20.699Z,98740.12
2023-07-01T07:00:49.136Z,98748.76
2023-07-01T07:03:17.525Z,98742.55
2023-07-01T07:05:45.513Z,98743.98
2023-07-01T07:08:13.376Z,98740.31
2023-07-01T07:10:41.407Z,98749.05
2023-07-01T07:13:09.173Z,98768.37
2023-07-01T07:15:36.986Z,98784.67
2023-07-01T07:18:07.885Z,98795.30
2023-07-01T07:20:36.967Z,98816.67
2023-07-01T07:23:07.415Z,98826.41
2023-07-01T07:25:35.479Z,98827.67
2023-07-01T07:28:04.678Z,98831.42
2023-07-01T07:30:32.521Z,98855.44
2023-07-01T07:33:00.500Z,98859.46
2023-07-01T07:35:28.297Z,98883.42
2023-07-01T07:37:56.048Z,98894.61
2023-07-01T07:40:24.020Z,98921.02
2023-07-01T07:42:54.318Z,98941.60
2023-07-01T07:45:22.802Z,98955.52
2023-07-01T07:47:51.101Z,98968.56
2023-07-01T07:50:23.569Z,99003.34
2023-07-01T07:52:53.760Z,99005.10
2023-07-01T07:55:21.824Z,99013.77
2023-07-01T07:57:50.227Z,99058.02
2023-07-01T08:00:18.602Z,99087.70
2023-07-01T08:02:50.073Z,99092.13
2023-07-01T08:05:18.447Z,99096.09
2023-07-01T08:07:47.177Z,99104.80
2023-07-01T08:10:16.738Z,99138.17
2023-07-01T08:12:44.670Z,99136.27
2023-07-01T08:15:12.415Z,99113.83
2023-07-01T08:17:40.538Z,99099.34
2023-07-01T08:20:09.312Z,99105.40
2023-07-01T08:22:38.294Z,99131.98
2023-07-01T08:25:06.418Z,99140.16
2023-07-01T08:27:34.177Z,99141.04
2023-07-01T08:30:01.962Z,99145.30
2023-07-01T08:32:35.098Z,99169.13
2023-07-01T08:35:03.026Z,99126.77
2023-07-01T08:37:31.538Z,99024.04
2023-07-01T08:39:59.626Z,99012.59
2023-07-01T08:42:31.809Z,99006.36
2023-07-01T08:44:59.736Z,99009.49
2023-07-01T08:47:27.520Z,99005.17
2023-07-01T08:49:55.803Z,99000.78
2023-07-01T08:52:23.613Z,98998.41
2023-07-01T08:54:51.575Z,98997.86
2023-07-01T08:57:20.697Z,98996.65
2023-07-01T08:59:49.220Z,98997.90
2023-07-01T09:02:17.046Z,99004.38
2023-07-01T09:04:45.109Z,99002.41
2023-07-01T09:07:13.169Z,98995.08
2023-07-01T09:09:41.026Z,98996.81
2023-07-01T09:12:09.433Z,98989.99
2023-07-01T09:15:03.139Z,98985.14
2023-07-01T09:17:35.656Z,98982.23
2023-07-01T09:20:06.461Z,98986.13
2023-07-01T09:22:36.004Z,98987.50
2023-07-01T09:25:04.053Z,98982.67
2023-07-01T09:27:43.468Z,98979.30
2023-07-01T09:30:24.668Z,98974.61
2023-07-01T09:32:52.796Z,98963.95
2023-07-01T09:35:20.909Z,98961.00
2023-07-01T09:38:02.272Z,98967.25
2023-07-01T09:40:30.296Z,98959.41
2023-07-01T09:42:58.464Z,98948.65
2023-07-01T09:45:27.822Z,98944.38
2023-07-01T09:47:55.899Z,98959.30
2023-07-01T09:50:25.002Z,98973.20
2023-07-01T09:52:54.992Z,98967.63
2023-07-01T09:55:23.645Z,98972.80
2023-07-01T09:57:51.729Z,98972.73
2023-07-01T10:00:20.535Z,98967.73
2023-07-01T10:02:49.260Z,98974.27
2023-07-01T10:05:17.342Z,98974.14
2023-07-01T10:07:46.359Z,98972.58
2023-07-01T10:10:14.846Z,98976.52
2023-07-01T10:12:43.486Z,98978.50
2023-07-01T10:15:14.317Z,98986.40
2023-07-01T10:17:49.466Z,99003.23
2023-07-01T10:20:33.718Z,99029.50
2023-07-01T10:23:02.630Z,99045.05
2023-07-01T10:25:34.462Z,99035.58
2023-07-01T10:28:06.139Z,99044.73
2023-07-01T10:30:43.376Z,99049.20
2023-07-01T10:33:34.527Z,99055.08
2023-07-01T10:36:06.325Z,99059.73
2023-07-01T10:38:35.007Z,99051.18
2023-07-01T10:41:02.861Z,99049.60
2023-07-01T10:43:34.964Z,99045.91
2023-07-01T10:46:09.402Z,99039.98
2023-07-01T10:49:06.606Z,99038.04
2023-07-01T10:51:47.195Z,99031.01
2023-07-01T10:54:15.297Z,99032.52
2023-07-01T10:57:13.740Z,99027.18
2023-07-01T10:59:41.817Z,99026.22
2023-07-01T11:02:43.099Z,99021.92
2023-07-01T11:05:12.389Z,99026.23
2023-07-01T11:07:42.981Z,99030.30
2023-07-01T11:10:11.111Z,99022.77
2023-07-01T11:12:39.661Z,99027.40
2023-07-01T11:15:08.682Z,99031.39
2023-07-01T11:17:37.099Z,99031.63
2023-07-01T11:20:05.922Z,99028.09
2023-07-01T11:22:34.250Z,99031.28
2023-07-01T11:25:05.015Z,99026.55
2023-07-01T11:27:33.224Z,99016.06
2023-07-01T11:30:01.212Z,99020.93
2023-07-01T11:32:29.306Z,99024.69
2023-07-01T11:34:58.338Z,99026.69
2023-07-01T11:37:27.275Z,99010.59
2023-07-01T11:39:55.338Z,99005.41
2023-07-01T11:42:26.526Z,98994.91
2023-07-01T11:44:54.316Z,99004.66
2023-07-01T11:47:22.104Z,99007.90
2023-07-01T11:49:50.054Z,99020.32
2023-07-01T11:52:24.655Z,99029.77
2023-07-01T11:54:56.045Z,99021.46
2023-07-01T11:57:24.856Z,99026.34
2023-07-01T11:59:59.623Z,99034.89
2023-07-01T12:02:32.969Z,99039.92
2023-07-01T12:05:01.789Z,99031.83
2023-07-01T12:07:29.932Z,99032.18
2023-07-01T12:10:10.466Z,99030.29
2023-07-01T12:12:38.456Z,99045.17
2023-07-01T12:15:08.705Z,99056.81
2023-07-01T12:17:37.916Z,99057.11
2023-07-01T12:20:09.976Z,99055.97
2023-07-01T12:22:38.656Z,99049.08
2023-07-01T12:25:06.866Z,99048.95
2023-07-01T12:27:35.164Z,99055.53
2023-07-01T12:30:06.030Z,99061.07
2023-07-01T12:32:33.938Z,99054.67
2023-07-01T12:35:02.139Z,99049.02
2023-07-01T12:37:30.156Z,99042.64
2023-07-01T12:39:58.138Z,99044.17
2023-07-01T12:42:25.946Z,99043.95
2023-07-01T12:44:54.369Z,99047.10
2023-07-01T12:47:22.833Z,99045.52
2023-07-01T12:49:50.773Z,99039.23
2023-07-01T12:52:18.543Z,99051.17
2023-07-01T12:54:46.437Z,99055.68
2023-07-01T12:57:14.423Z,99063.53
2023-07-01T12:59:46.647Z,99059.29
2023-07-01T13:02:14.650Z,99061.09
2023-07-01T13:04:42.536Z,99062.24
2023-07-01T13:07:17.942Z,99058.09
2023-07-01T13:09:55.892Z,99060.10
2023-07-01T13:12:27.135Z,99056.92
2023-07-01T13:14:55.817Z,99049.58
2023-07-01T13:17:39.817Z,99054.83
2023-07-01T13:20:11.911Z,99052.91
2023-07-01T13:22:40.016Z,99051.52
2023-07-01T13:25:08.131Z,99048.38
2023-07-01T13:27:35.926Z,99044.61
2023-07-01T13:30:07.558Z,99046.56
2023-07-01T13:32:35.544Z,99049.45
2023-07-01T13:35:03.756Z,99048.52
2023-07-01T13:37:33.406Z,99043.83
2023-07-01T13:40:01.151Z,99040.18
2023-07-01T13:42:28.981Z,99041.34
2023-07-01T13:44:57.412Z,99042.36
2023-07-01T13:47:46.919Z,99036.39
2023-07-01T13:50:23.319Z,99040.23
2023-07-01T13:53:01.074Z,99038.15
2023-07-01T13:55:30.084Z,99035.27
2023-07-01T13:57:58.055Z,99034.09
2023-07-01T14:00:41.407Z,99034.17
2023-07-01T14:03:42.010Z,99035.06
2023-07-01T14:06:09.848Z,99034.71
2023-07-01T14:08:37.750Z,99034.98
2023-07-01T14:11:05.563Z,99033.05
2023-07-01T14:13:33.408Z,99032.33
2023-07-01T14:16:01.174Z,99028.95
2023-07-01T14:18:30.088Z,99036.98
2023-07-01T14:21:02.860Z,99038.13
2023-07-01T14:23:39.144Z,99040.13
2023-07-01T14:26:14.920Z,99039.26
2023-07-01T14:28:43.070Z,99042.90
2023-07-01T14:31:14.223Z,99044.77
2023-07-01T14:33:56.222Z,99037.20
2023-07-01T14:36:31.786Z,99045.49
2023-07-01T14:39:01.051Z,99043.13
2023-07-01T14:41:33.975Z,99040.21
2023-07-01T14:44:03.701Z,99043.05
2023-07-01T14:46:35.922Z,99045.30
2023-07-01T14:49:04.722Z,99038.11
2023-07-01T14:51:32.959Z,99038.35
2023-07-01T14:54:00.811Z,99035.73
2023-07-01T14:56:29.076Z,99039.52
2023-07-01T14:58:56.953Z,99038.16
2023-07-01T15:01:25.313Z,99029.64
2023-07-01T15:03:54.115Z,99036.33
2023-07-01T15:06:22.597Z,99032.50
2023-07-01T15:08:50.378Z,99029.84
2023-07-01T15:11:20.407Z,99034.22
2023-07-01T15:13:48.407Z,99037.05
2023-07-01T15:16:18.255Z,99032.95
2023-07-01T15:18:47.362Z,99034.38
2023-07-01T15:21:15.229Z,99037.38
2023-07-01T15:23:43.176Z,99037.46
2023-07-01T15:26:11.092Z,99038.13
2023-07-01T15:28:38.914Z,99031.57
2023-07-01T15:31:07.558Z,99026.59
2023-07-01T15:33:35.573Z,99038.54
2023-07-01T15:36:04.037Z,99046.16
2023-07-01T15:38:32.089Z,99042.27
2023-07-01T15:40:59.902Z,99042.13
2023-07-01T15:43:27.974Z,99042.90
2023-07-01T15:45:56.243Z,99034.39
2023-07-01T15:48:25.648Z,99044.08
2023-07-01T15:50:53.712Z,99044.83
2023-07-01T15:53:21.749Z,99049.84
2023-07-01T15:55:53.400Z,99047.41
2023-07-01T15:58:22.223Z,99044.36
2023-07-01T16:00:50.025Z,99048.33
2023-07-01T16:03:17.937Z,99050.11
2023-07-01T16:05:46.711Z,99050.95
2023-07-01T16:08:15.327Z,99046.64
2023-07-01T16:10:43.785Z,99049.39
2023-07-01T16:13:26.986Z,99051.52
2023-07-01T16:16:01.268Z,99056.23
2023-07-01T16:18:50.702Z,99058.98
2023-07-01T16:21:22.978Z,99054.98
2023-07-01T16:23:55.992Z,99059.30
2023-07-01T16:26:31.377Z,99061.80
2023-07-01T16:28:59.257Z,99061.05
2023-07-01T16:31:28.556Z,99062.54
2023-07-01T16:33:57.385Z,99065.05
2023-07-01T16:36:34.217Z,99065.80
2023-07-01T16:39:09.017Z,99067.02
2023-07-01T16:41:37.071Z,99064.98
2023-07-01T16:44:05.408Z,99071.74
2023-07-01T16:46:35.664Z,99069.35
2023-07-01T16:49:16.371Z,99068.83
2023-07-01T16:51:45.545Z,99066.61
2023-07-01T16:54:23.561Z,99067.55
2023-07-01T16:56:57.627Z,99051.56
2023-07-01T16:59:43.460Z,99033.62
2023-07-01T17:02:32.164Z,99020.02
2023-07-01T17:05:12.497Z,99003.23
2023-07-01T17:07:41.377Z,98963.83
2023-07-01T17:10:37.571Z,98942.48
2023-07-01T17:13:07.000Z,98945.35
2023-07-01T17:15:40.440Z,98958.51
2023-07-01T17:18:13.028Z,98951.98
2023-07-01T17:20:41.464Z,98954.48
2023-07-01T17:23:09.527Z,98959.52
2023-07-01T17:25:38.718Z,98954.46
2023-07-01T17:28:06.546Z,98970.85
2023-07-01T17:30:34.788Z,98971.46
2023-07-01T17:33:02.593Z,98960.69
2023-07-01T17:35:33.443Z,98958.53
2023-07-01T17:38:02.283Z,98941.19
2023-07-01T17:40:30.071Z,98933.80
2023-07-01T17:42:57.998Z,98939.05
2023-07-01T17:45:25.755Z,98931.99
2023-07-01T17:47:54.214Z,98920.50
2023-07-01T17:50:22.642Z,98922.23
2023-07-01T17:52:52.059Z,98927.56
2023-07-01T17:55:20.151Z,98924.34
2023-07-01T18:00:19.368Z,98893.16
2023-07-01T18:02:47.479Z,98887.48
2023-07-01T18:05:16.211Z,98891.91
2023-07-01T18:07:44.323Z,98891.30
2023-07-01T18:10:12.503Z,98878.37
2023-07-01T18:12:42.715Z,98877.44
2023-07-01T18:15:15.716Z,98876.58
2023-07-01T18:17:46.174Z,98869.02
2023-07-01T18:20:15.016Z,98866.50
2023-07-01T18:22:43.476Z,98867.05
2023-07-01T18:25:13.138Z,98866.30
2023-07-01T18:27:41.450Z,98864.11
2023-07-01T18:30:14.681Z,98862.41
2023-07-01T18:32:46.809Z,98867.88
2023-07-01T18:35:16.526Z,98883.30
2023-07-01T18:37:46.711Z,98891.17
2023-07-01T18:40:15.993Z,98954.86
2023-07-01T18:42:44.967Z,98978.23
2023-07-01T18:45:14.223Z,98974.77
2023-07-01T18:47:43.343Z,98974.05
2023-07-01T18:50:12.399Z,98972.04
2023-07-01T18:52:41.691Z,98971.02
2023-07-01T18:55:10.496Z,98972.46
2023-07-01T18:57:38.875Z,98961.71
2023-07-01T19:00:08.663Z,98957.46
2023-07-01T19:02:37.574Z,98955.57
2023-07-01T19:05:07.484Z,98956.46
2023-07-01T19:07:40.924Z,98942.66
2023-07-01T19:10:09.673Z,98936.27
2023-07-01T19:12:38.021Z,98925.26
2023-07-01T19:15:07.374Z,98920.30
2023-07-01T19:17:37.094Z,98919.98
2023-07-01T19:20:06.059Z,98915.97
2023-07-01T19:22:36.976Z,98909.77
2023-07-01T19:25:11.619Z,98901.16
2023-07-01T19:27:41.084Z,98872.34
2023-07-01T19:30:14.491Z,98844.86
2023-07-01T19:32:43.743Z,98824.58
2023-07-01T19:35:12.661Z,98808.11
2023-07-01T19:37:41.118Z,98794.00
2023-07-01T19:40:09.940Z,98776.05
2023-07-01T19:42:38.244Z,98769.30
2023-07-01T19:45:07.358Z,98759.13
2023-07-01T19:47:40.119Z,98752.11
2023-07-01T19:50:12.435Z,98744.25
2023-07-01T19:52:40.938Z,98730.46
2023-07-01T19:55:09.897Z,98728.89
2023-07-01T19:57:38.232Z,98726.22
2023-07-01T20:00:08.634Z,98726.64
2023-07-01T20:02:38.112Z,98717.42
2023-07-01T20:05:06.624Z,98715.98
2023-07-01T20:07:34.858Z,98711.05
2023-07-01T20:10:12.376Z,98705.06
2023-07-01T20:12:43.514Z,98706.11
2023-07-01T20:15:13.670Z,98698.96
2023-07-01T20:17:41.552Z,98703.36
2023-07-01T20:20:10.018Z,98707.10
2023-07-01T20:22:38.124Z,98706.11
2023-07-01T20:25:06.346Z,98701.55
2023-07-01T20:27:34.424Z,98703.23
2023-07-01T20:30:02.335Z,98699.59
2023-07-01T20:32:30.150Z,98703.27
2023-07-01T20:34:57.972Z,98701.23
2023-07-01T20:37:26.173Z,98702.48
2023-07-01T20:39:54.108Z,98705.45
2023-07-01T20:42:22.649Z,98700.18
2023-07-01T20:44:52.504Z,98691.73
2023-07-01T20:47:20.267Z,98689.44
2023-07-01T20:49:48.608Z,98682.34
2023-07-01T20:52:20.550Z,98679.33
2023-07-01T20:54:48.515Z,98680.90
2023-07-01T20:57:17.757Z,98677.10
2023-07-01T20:59:45.666Z,98676.16
2023-07-01T21:02:13.826Z,98673.52
2023-07-01T21:04:42.031Z,98668.45
2023-07-01T21:07:09.951Z,98667.35
2023-07-01T21:09:37.940Z,98669.80
2023-07-01T21:12:06.477Z,98669.07
2023-07-01T21:14:34.365Z,98667.09
2023-07-01T21:17:02.268Z,98667.01
2023-07-01T21:19:30.363Z,98667.06
2023-07-01T21:21:58.262Z,98667.44
2023-07-01T21:24:26.261Z,98670.86
2023-07-01T21:26:53.999Z,98669.41
2023-07-01T21:29:21.682Z,98661.19
2023-07-01T21:31:53.352Z,98664.42
2023-07-01T21:34:22.036Z,98665.55
2023-07-01T21:36:54.787Z,98660.52
2023-07-01T21:39:23.844Z,98657.18
2023-07-01T21:41:51.748Z,98657.87
2023-07-01T21:44:19.667Z,98657.48
2023-07-01T21:46:47.468Z,98658.05
2023-07-01T21:49:16.036Z,98655.31
2023-07-01T21:51:48.219Z,98653.95
2023-07-01T21:54:17.466Z,98652.60
2023-07-01T21:56:46.370Z,98650.48
2023-07-01T21:59:14.621Z,98650.84
2023-07-01T22:01:43.596Z,98650.19
2023-07-01T22:04:12.137Z,98650.27
2023-07-01T22:06:42.744Z,98647.21
2023-07-01T22:09:10.798Z,98645.85
2023-07-01T22:11:38.836Z,98645.14
2023-07-01T22:14:07.000Z,98646.80
2023-07-01T22:16:35.548Z,98645.67
2023-07-01T22:19:03.638Z,98642.38
2023-07-01T22:21:32.104Z,98647.85
2023-07-01T22:24:00.841Z,98643.42
2023-07-01T22:26:29.508Z,98645.00
2023-07-01T22:28:58.200Z,98645.69
2023-07-01T22:31:26.362Z,98654.35
2023-07-01T22:33:54.437Z,98656.23
2023-07-01T22:36:24.549Z,98662.77
2023-07-01T22:38:52.608Z,98667.11
2023-07-01T22:41:20.379Z,98665.37
2023-07-01T22:43:48.306Z,98673.36
2023-07-01T22:46:16.305Z,98673.52
2023-07-01T22:48:44.248Z,98674.58
2023-07-01T22:51:12.133Z,98671.30
2023-07-01T22:53:40.251Z,98674.34
2023-07-01T22:56:08.296Z,98674.64
2023-07-01T22:58:36.190Z,98673.48
2023-07-01T23:01:04.052Z,98675.84
2023-07-01T23:03:32.084Z,98671.92
2023-07-01T23:06:00.337Z,98671.84
2023-07-01T23:08:28.273Z,98669.40
2023-07-01T23:10:56.003Z,98670.46
2023-07-01T23:13:23.741Z,98672.31
2023-07-01T23:15:51.645Z,98671.48
2023-07-01T23:18:19.467Z,98671.37
2023-07-01T23:20:47.858Z,98667.48
2023-07-01T23:23:16.793Z,98665.36
2023-07-01T23:25:45.895Z,98664.22
2023-07-01T23:28:14.437Z,98662.14
2023-07-01T23:30:42.864Z,98666.17
2023-07-01T23:33:10.927Z,98664.86
2023-07-01T23:35:38.791Z,98664.27
2023-07-01T23:38:06.548Z,98657.48
2023-07-01T23:40:34.667Z,98653.75
2023-07-01T23:43:02.548Z,98652.27
2023-07-01T23:45:30.382Z,98652.90
2023-07-01T23:47:58.250Z,98652.61
2023-07-01T23:50:25.945Z,98645.25
2023-07-01T23:52:54.109Z,98646.70
2023-07-01T23:55:23.272Z,98642.27
2023-07-01T23:57:51.232Z,98643.37
